Ent AFB, Colorado
Current Conditions -  °F | °C
As of 6:54 PM on Friday 24 Oct 2014 (Local Time) from KCOS Reporting Station
Clear Clear  
Wind Chill: 65°   Ceiling: Unl
Heat Index: 65°   Visibility: 10mi
Dew Point: 23°   Wind: 9mph
Humidity: 20%   Direction: 130°SE
Pressure: 30.24"   Gusts: NA
Location:  38.8334°N, 104.82°W
Report Text: KCOS 250054Z 13008KT 10SM CLR 18/M05 A3024 RMK AO2 SLP189 T01831050
Loading
Personal Weather Stations






























Interactive Weather Map
Tropical Storm Tracking
New forecast layout! Learn more

10-Day Weather Forecast

Advertisements
Track Severe Weather on mobile